sensor_id;sensor_type;location;lat;lon;timestamp;temperature;humidity
79698;SHT31;69168;42.708;23.286;2023-11-18T00:00:25;6.51;75.73
79698;SHT31;69168;42.708;23.286;2023-11-18T00:02:51;6.34;75.17
79698;SHT31;69168;42.708;23.286;2023-11-18T00:05:19;6.22;75.73
79698;SHT31;69168;42.708;23.286;2023-11-18T00:07:45;6.29;75.29
79698;SHT31;69168;42.708;23.286;2023-11-18T00:10:11;6.25;75.83
79698;SHT31;69168;42.708;23.286;2023-11-18T00:12:37;6.15;76.41
79698;SHT31;69168;42.708;23.286;2023-11-18T00:15:07;6.29;75.68
79698;SHT31;69168;42.708;23.286;2023-11-18T00:17:37;6.06;75.56
79698;SHT31;69168;42.708;23.286;2023-11-18T00:20:04;5.98;76.36
79698;SHT31;69168;42.708;23.286;2023-11-18T00:22:37;6.06;76.21
79698;SHT31;69168;42.708;23.286;2023-11-18T00:25:05;5.92;76.07
79698;SHT31;69168;42.708;23.286;2023-11-18T00:27:33;5.97;76.40
79698;SHT31;69168;42.708;23.286;2023-11-18T00:30:03;5.88;76.49
79698;SHT31;69168;42.708;23.286;2023-11-18T00:32:31;5.97;76.84
79698;SHT31;69168;42.708;23.286;2023-11-18T00:34:57;5.94;76.33
79698;SHT31;69168;42.708;23.286;2023-11-18T00:37:22;5.83;76.20
79698;SHT31;69168;42.708;23.286;2023-11-18T00:39:48;5.83;77.00
79698;SHT31;69168;42.708;23.286;2023-11-18T00:42:13;5.75;77.12
79698;SHT31;69168;42.708;23.286;2023-11-18T00:44:39;5.73;76.98
79698;SHT31;69168;42.708;23.286;2023-11-18T00:47:07;5.71;76.95
79698;SHT31;69168;42.708;23.286;2023-11-18T00:49:35;5.77;77.05
79698;SHT31;69168;42.708;23.286;2023-11-18T00:52:01;5.73;76.49
79698;SHT31;69168;42.708;23.286;2023-11-18T00:54:27;5.70;76.64
79698;SHT31;69168;42.708;23.286;2023-11-18T00:56:52;5.68;76.65
79698;SHT31;69168;42.708;23.286;2023-11-18T00:59:18;5.75;76.81
79698;SHT31;69168;42.708;23.286;2023-11-18T01:01:43;5.63;76.82
79698;SHT31;69168;42.708;23.286;2023-11-18T01:04:09;5.58;76.73
79698;SHT31;69168;42.708;23.286;2023-11-18T01:06:34;5.66;76.69
79698;SHT31;69168;42.708;23.286;2023-11-18T01:09:00;5.60;76.78
79698;SHT31;69168;42.708;23.286;2023-11-18T01:11:26;5.64;76.87
79698;SHT31;69168;42.708;23.286;2023-11-18T01:13:51;5.64;77.08
79698;SHT31;69168;42.708;23.286;2023-11-18T01:16:20;5.60;76.67
79698;SHT31;69168;42.708;23.286;2023-11-18T01:18:45;5.54;77.29
79698;SHT31;69168;42.708;23.286;2023-11-18T01:21:14;5.79;76.24
79698;SHT31;69168;42.708;23.286;2023-11-18T01:23:42;5.68;76.90
79698;SHT31;69168;42.708;23.286;2023-11-18T01:26:08;5.63;76.83
79698;SHT31;69168;42.708;23.286;2023-11-18T01:28:34;5.73;76.18
79698;SHT31;69168;42.708;23.286;2023-11-18T01:31:06;5.67;76.69
79698;SHT31;69168;42.708;23.286;2023-11-18T01:33:39;5.53;76.93
79698;SHT31;69168;42.708;23.286;2023-11-18T01:36:10;5.63;76.18
79698;SHT31;69168;42.708;23.286;2023-11-18T01:38:37;5.43;76.92
79698;SHT31;69168;42.708;23.286;2023-11-18T01:41:06;5.44;76.48
79698;SHT31;69168;42.708;23.286;2023-11-18T01:43:32;5.47;76.56
79698;SHT31;69168;42.708;23.286;2023-11-18T01:46:05;5.51;76.16
79698;SHT31;69168;42.708;23.286;2023-11-18T01:48:36;5.33;76.53
79698;SHT31;69168;42.708;23.286;2023-11-18T01:51:02;5.40;76.02
79698;SHT31;69168;42.708;23.286;2023-11-18T01:53:30;5.32;76.13
79698;SHT31;69168;42.708;23.286;2023-11-18T01:55:56;5.37;75.15
79698;SHT31;69168;42.708;23.286;2023-11-18T01:58:24;5.33;75.32
79698;SHT31;69168;42.708;23.286;2023-11-18T02:00:51;5.22;75.34
79698;SHT31;69168;42.708;23.286;2023-11-18T02:03:17;5.19;75.29
79698;SHT31;69168;42.708;23.286;2023-11-18T02:05:43;5.12;74.80
79698;SHT31;69168;42.708;23.286;2023-11-18T02:08:10;5.11;74.30
79698;SHT31;69168;42.708;23.286;2023-11-18T02:10:47;5.12;74.40
79698;SHT31;69168;42.708;23.286;2023-11-18T02:13:23;5.12;74.39
79698;SHT31;69168;42.708;23.286;2023-11-18T02:15:53;4.92;74.52
79698;SHT31;69168;42.708;23.286;2023-11-18T02:18:20;4.96;74.58
79698;SHT31;69168;42.708;23.286;2023-11-18T02:20:47;4.95;74.73
79698;SHT31;69168;42.708;23.286;2023-11-18T02:23:13;4.99;74.13
79698;SHT31;69168;42.708;23.286;2023-11-18T02:25:45;4.92;73.93
79698;SHT31;69168;42.708;23.286;2023-11-18T02:28:11;4.81;73.95
79698;SHT31;69168;42.708;23.286;2023-11-18T02:30:37;4.96;73.67
79698;SHT31;69168;42.708;23.286;2023-11-18T02:35:44;4.89;73.30
79698;SHT31;69168;42.708;23.286;2023-11-18T02:38:16;4.89;72.88
79698;SHT31;69168;42.708;23.286;2023-11-18T02:40:43;4.91;73.39
79698;SHT31;69168;42.708;23.286;2023-11-18T02:43:10;4.85;73.59
79698;SHT31;69168;42.708;23.286;2023-11-18T02:45:37;4.82;73.79
79698;SHT31;69168;42.708;23.286;2023-11-18T02:48:04;4.84;72.69
79698;SHT31;69168;42.708;23.286;2023-11-18T02:50:32;4.67;73.07
79698;SHT31;69168;42.708;23.286;2023-11-18T02:52:57;4.78;72.78
79698;SHT31;69168;42.708;23.286;2023-11-18T02:55:23;4.75;73.26
79698;SHT31;69168;42.708;23.286;2023-11-18T02:57:50;4.58;73.43
79698;SHT31;69168;42.708;23.286;2023-11-18T03:00:19;4.70;73.09
79698;SHT31;69168;42.708;23.286;2023-11-18T03:02:47;4.58;73.14
79698;SHT31;69168;42.708;23.286;2023-11-18T03:05:14;4.52;73.62
79698;SHT31;69168;42.708;23.286;2023-11-18T03:07:45;4.32;73.57
79698;SHT31;69168;42.708;23.286;2023-11-18T03:10:16;4.35;73.66
79698;SHT31;69168;42.708;23.286;2023-11-18T03:12:53;4.43;73.59
79698;SHT31;69168;42.708;23.286;2023-11-18T03:15:22;4.35;74.19
79698;SHT31;69168;42.708;23.286;2023-11-18T03:17:51;4.29;73.72
79698;SHT31;69168;42.708;23.286;2023-11-18T03:20:19;4.23;73.84
79698;SHT31;69168;42.708;23.286;2023-11-18T03:22:47;4.13;73.62
79698;SHT31;69168;42.708;23.286;2023-11-18T03:25:13;4.25;73.24
79698;SHT31;69168;42.708;23.286;2023-11-18T03:27:39;4.08;73.66
79698;SHT31;69168;42.708;23.286;2023-11-18T03:30:06;4.16;73.30
79698;SHT31;69168;42.708;23.286;2023-11-18T03:32:32;4.15;72.98
79698;SHT31;69168;42.708;23.286;2023-11-18T03:35:00;3.94;73.55
79698;SHT31;69168;42.708;23.286;2023-11-18T03:37:26;3.95;73.71
79698;SHT31;69168;42.708;23.286;2023-11-18T03:39:52;3.98;73.13
79698;SHT31;69168;42.708;23.286;2023-11-18T03:42:17;3.92;72.98
79698;SHT31;69168;42.708;23.286;2023-11-18T03:44:43;3.88;73.13
79698;SHT31;69168;42.708;23.286;2023-11-18T03:47:09;3.88;72.78
79698;SHT31;69168;42.708;23.286;2023-11-18T03:49:34;3.90;73.42
79698;SHT31;69168;42.708;23.286;2023-11-18T03:52:00;3.82;73.30
79698;SHT31;69168;42.708;23.286;2023-11-18T03:54:25;3.77;72.91
79698;SHT31;69168;42.708;23.286;2023-11-18T03:56:52;3.77;73.15
79698;SHT31;69168;42.708;23.286;2023-11-18T03:59:17;3.69;72.50
79698;SHT31;69168;42.708;23.286;2023-11-18T04:01:43;3.69;72.59
79698;SHT31;69168;42.708;23.286;2023-11-18T04:04:08;3.67;72.45
79698;SHT31;69168;42.708;23.286;2023-11-18T04:06:34;3.71;72.59
79698;SHT31;69168;42.708;23.286;2023-11-18T04:08:59;3.69;72.40
79698;SHT31;69168;42.708;23.286;2023-11-18T04:11:25;3.56;72.32
79698;SHT31;69168;42.708;23.286;2023-11-18T04:13:53;3.69;72.08
79698;SHT31;69168;42.708;23.286;2023-11-18T04:16:20;3.63;72.05
79698;SHT31;69168;42.708;23.286;2023-11-18T04:18:46;3.67;72.03
79698;SHT31;69168;42.708;23.286;2023-11-18T04:21:13;3.64;72.19
79698;SHT31;69168;42.708;23.286;2023-11-18T04:23:40;3.66;71.95
79698;SHT31;69168;42.708;23.286;2023-11-18T04:26:06;3.70;71.67
79698;SHT31;69168;42.708;23.286;2023-11-18T04:28:35;3.70;71.68
79698;SHT31;69168;42.708;23.286;2023-11-18T04:31:01;3.67;71.80
79698;SHT31;69168;42.708;23.286;2023-11-18T04:33:28;3.60;71.66
79698;SHT31;69168;42.708;23.286;2023-11-18T04:35:54;3.67;71.60
79698;SHT31;69168;42.708;23.286;2023-11-18T04:38:22;3.52;71.85
79698;SHT31;69168;42.708;23.286;2023-11-18T04:40:48;3.50;71.87
79698;SHT31;69168;42.708;23.286;2023-11-18T04:43:14;3.57;72.00
79698;SHT31;69168;42.708;23.286;2023-11-18T04:45:42;3.60;72.12
79698;SHT31;69168;42.708;23.286;2023-11-18T04:48:08;3.46;72.30
79698;SHT31;69168;42.708;23.286;2023-11-18T04:50:34;3.49;71.95
79698;SHT31;69168;42.708;23.286;2023-11-18T04:52:59;3.52;71.78
79698;SHT31;69168;42.708;23.286;2023-11-18T04:55:25;3.61;71.70
79698;SHT31;69168;42.708;23.286;2023-11-18T04:57:54;3.47;71.51
79698;SHT31;69168;42.708;23.286;2023-11-18T05:00:20;3.52;71.81
79698;SHT31;69168;42.708;23.286;2023-11-18T05:02:48;3.54;72.02
79698;SHT31;69168;42.708;23.286;2023-11-18T05:05:15;3.36;72.04
79698;SHT31;69168;42.708;23.286;2023-11-18T05:07:41;3.43;71.89
79698;SHT31;69168;42.708;23.286;2023-11-18T05:10:07;3.50;71.61
79698;SHT31;69168;42.708;23.286;2023-11-18T05:12:37;3.54;71.40
79698;SHT31;69168;42.708;23.286;2023-11-18T05:15:04;3.52;71.77
79698;SHT31;69168;42.708;23.286;2023-11-18T05:17:30;3.52;71.48
79698;SHT31;69168;42.708;23.286;2023-11-18T05:19:56;3.64;71.59
79698;SHT31;69168;42.708;23.286;2023-11-18T05:22:21;3.43;71.26
79698;SHT31;69168;42.708;23.286;2023-11-18T05:24:47;3.47;71.18
79698;SHT31;69168;42.708;23.286;2023-11-18T05:27:15;3.54;70.72
79698;SHT31;69168;42.708;23.286;2023-11-18T05:29:42;3.44;70.99
79698;SHT31;69168;42.708;23.286;2023-11-18T05:32:10;3.42;71.07
79698;SHT31;69168;42.708;23.286;2023-11-18T05:34:43;3.47;70.72
79698;SHT31;69168;42.708;23.286;2023-11-18T05:37:12;3.43;70.90
79698;SHT31;69168;42.708;23.286;2023-11-18T05:39:37;3.33;71.18
79698;SHT31;69168;42.708;23.286;2023-11-18T05:42:11;3.29;71.21
79698;SHT31;69168;42.708;23.286;2023-11-18T05:44:37;3.19;71.64
79698;SHT31;69168;42.708;23.286;2023-11-18T05:47:05;3.35;71.18
79698;SHT31;69168;42.708;23.286;2023-11-18T05:49:33;3.26;71.35
79698;SHT31;69168;42.708;23.286;2023-11-18T05:51:58;3.16;71.94
79698;SHT31;69168;42.708;23.286;2023-11-18T05:54:24;3.30;71.87
79698;SHT31;69168;42.708;23.286;2023-11-18T05:56:49;3.30;71.77
79698;SHT31;69168;42.708;23.286;2023-11-18T05:59:15;3.32;70.96
79698;SHT31;69168;42.708;23.286;2023-11-18T06:01:41;3.25;71.43
79698;SHT31;69168;42.708;23.286;2023-11-18T06:04:06;3.29;71.20
79698;SHT31;69168;42.708;23.286;2023-11-18T06:06:35;3.32;71.74
79698;SHT31;69168;42.708;23.286;2023-11-18T06:09:02;3.33;71.98
79698;SHT31;69168;42.708;23.286;2023-11-18T06:11:34;3.11;72.53
79698;SHT31;69168;42.708;23.286;2023-11-18T06:14:03;3.08;73.30
79698;SHT31;69168;42.708;23.286;2023-11-18T06:16:28;2.97;73.78
79698;SHT31;69168;42.708;23.286;2023-11-18T06:18:55;3.05;73.88
79698;SHT31;69168;42.708;23.286;2023-11-18T06:21:27;3.04;73.95
79698;SHT31;69168;42.708;23.286;2023-11-18T06:23:58;3.06;73.56
79698;SHT31;69168;42.708;23.286;2023-11-18T06:26:24;3.09;73.06
79698;SHT31;69168;42.708;23.286;2023-11-18T06:28:52;3.19;72.78
79698;SHT31;69168;42.708;23.286;2023-11-18T06:31:19;3.25;72.34
79698;SHT31;69168;42.708;23.286;2023-11-18T06:33:46;3.29;72.04
79698;SHT31;69168;42.708;23.286;2023-11-18T06:38:51;3.16;72.47
79698;SHT31;69168;42.708;23.286;2023-11-18T06:41:18;3.29;71.96
79698;SHT31;69168;42.708;23.286;2023-11-18T06:43:44;3.27;71.38
79698;SHT31;69168;42.708;23.286;2023-11-18T06:46:21;3.32;70.93
79698;SHT31;69168;42.708;23.286;2023-11-18T06:48:48;3.39;70.85
79698;SHT31;69168;42.708;23.286;2023-11-18T06:51:15;3.33;71.04
79698;SHT31;69168;42.708;23.286;2023-11-18T06:53:41;3.32;70.62
79698;SHT31;69168;42.708;23.286;2023-11-18T06:56:07;3.39;70.64
79698;SHT31;69168;42.708;23.286;2023-11-18T06:58:33;3.37;70.95
79698;SHT31;69168;42.708;23.286;2023-11-18T07:00:59;3.33;70.71
79698;SHT31;69168;42.708;23.286;2023-11-18T07:03:24;3.37;70.15
79698;SHT31;69168;42.708;23.286;2023-11-18T07:05:50;3.33;70.71
79698;SHT31;69168;42.708;23.286;2023-11-18T07:08:15;3.35;70.70
79698;SHT31;69168;42.708;23.286;2023-11-18T07:10:41;3.27;70.56
79698;SHT31;69168;42.708;23.286;2023-11-18T07:13:06;3.30;71.47
79698;SHT31;69168;42.708;23.286;2023-11-18T07:15:34;3.33;71.39
79698;SHT31;69168;42.708;23.286;2023-11-18T07:18:01;3.32;71.43
79698;SHT31;69168;42.708;23.286;2023-11-18T07:20:27;3.37;71.36
79698;SHT31;69168;42.708;23.286;2023-11-18T07:22:52;3.42;71.00
79698;SHT31;69168;42.708;23.286;2023-11-18T07:25:19;3.29;71.43
79698;SHT31;69168;42.708;23.286;2023-11-18T07:27:48;3.20;71.47
79698;SHT31;69168;42.708;23.286;2023-11-18T07:30:13;3.30;71.08
79698;SHT31;69168;42.708;23.286;2023-11-18T07:32:39;3.20;71.21
79698;SHT31;69168;42.708;23.286;2023-11-18T07:35:05;3.19;71.17
79698;SHT31;69168;42.708;23.286;2023-11-18T07:37:35;3.26;71.23
79698;SHT31;69168;42.708;23.286;2023-11-18T07:40:00;3.26;71.26
79698;SHT31;69168;42.708;23.286;2023-11-18T07:42:26;3.37;71.05
79698;SHT31;69168;42.708;23.286;2023-11-18T07:44:52;3.27;71.11
79698;SHT31;69168;42.708;23.286;2023-11-18T07:47:17;3.27;70.75
79698;SHT31;69168;42.708;23.286;2023-11-18T07:49:44;3.18;71.43
79698;SHT31;69168;42.708;23.286;2023-11-18T07:52:11;3.27;71.06
79698;SHT31;69168;42.708;23.286;2023-11-18T07:54:36;3.27;70.69
79698;SHT31;69168;42.708;23.286;2023-11-18T07:57:03;3.16;70.71
79698;SHT31;69168;42.708;23.286;2023-11-18T07:59:33;3.20;70.91
79698;SHT31;69168;42.708;23.286;2023-11-18T08:01:58;3.16;70.86
79698;SHT31;69168;42.708;23.286;2023-11-18T08:04:26;3.20;70.77
79698;SHT31;69168;42.708;23.286;2023-11-18T08:06:53;3.12;71.15
79698;SHT31;69168;42.708;23.286;2023-11-18T08:09:18;3.19;71.23
79698;SHT31;69168;42.708;23.286;2023-11-18T08:11:48;3.22;70.79
79698;SHT31;69168;42.708;23.286;2023-11-18T08:14:17;3.26;70.79
79698;SHT31;69168;42.708;23.286;2023-11-18T08:16:43;3.19;71.12
79698;SHT31;69168;42.708;23.286;2023-11-18T08:19:08;3.29;70.70
79698;SHT31;69168;42.708;23.286;2023-11-18T08:21:34;3.25;70.61
79698;SHT31;69168;42.708;23.286;2023-11-18T08:24:07;3.18;70.95
79698;SHT31;69168;42.708;23.286;2023-11-18T08:26:36;3.19;71.11
79698;SHT31;69168;42.708;23.286;2023-11-18T08:29:02;3.25;70.42
79698;SHT31;69168;42.708;23.286;2023-11-18T08:31:28;3.16;70.20
79698;SHT31;69168;42.708;23.286;2023-11-18T08:33:53;3.08;70.49
79698;SHT31;69168;42.708;23.286;2023-11-18T08:36:20;3.19;70.75
79698;SHT31;69168;42.708;23.286;2023-11-18T08:38:48;3.25;70.42
79698;SHT31;69168;42.708;23.286;2023-11-18T08:41:13;3.15;70.69
79698;SHT31;69168;42.708;23.286;2023-11-18T08:43:39;3.18;71.02
79698;SHT31;69168;42.708;23.286;2023-11-18T08:46:07;3.20;70.63
79698;SHT31;69168;42.708;23.286;2023-11-18T08:48:33;3.25;70.42
79698;SHT31;69168;42.708;23.286;2023-11-18T08:50:59;3.09;70.86
79698;SHT31;69168;42.708;23.286;2023-11-18T08:53:26;3.09;70.78
79698;SHT31;69168;42.708;23.286;2023-11-18T08:55:53;2.99;70.99
79698;SHT31;69168;42.708;23.286;2023-11-18T08:58:21;3.06;71.29
79698;SHT31;69168;42.708;23.286;2023-11-18T09:00:58;3.04;71.35
79698;SHT31;69168;42.708;23.286;2023-11-18T09:03:44;3.04;71.33
79698;SHT31;69168;42.708;23.286;2023-11-18T09:06:17;2.99;71.54
79698;SHT31;69168;42.708;23.286;2023-11-18T09:08:44;2.97;71.49
79698;SHT31;69168;42.708;23.286;2023-11-18T09:11:18;2.92;71.53
79698;SHT31;69168;42.708;23.286;2023-11-18T09:13:44;2.99;71.42
79698;SHT31;69168;42.708;23.286;2023-11-18T09:16:12;2.98;71.28
79698;SHT31;69168;42.708;23.286;2023-11-18T09:18:40;3.01;71.33
79698;SHT31;69168;42.708;23.286;2023-11-18T09:21:07;3.11;70.77
79698;SHT31;69168;42.708;23.286;2023-11-18T09:23:33;3.15;70.63
79698;SHT31;69168;42.708;23.286;2023-11-18T09:26:03;3.16;70.60
79698;SHT31;69168;42.708;23.286;2023-11-18T09:28:36;3.15;70.59
79698;SHT31;69168;42.708;23.286;2023-11-18T09:31:02;3.16;70.76
79698;SHT31;69168;42.708;23.286;2023-11-18T09:33:30;3.16;70.66
79698;SHT31;69168;42.708;23.286;2023-11-18T09:36:00;3.19;70.52
79698;SHT31;69168;42.708;23.286;2023-11-18T09:38:26;3.23;70.54
79698;SHT31;69168;42.708;23.286;2023-11-18T09:40:56;3.15;70.19
79698;SHT31;69168;42.708;23.286;2023-11-18T09:43:21;3.23;70.24
79698;SHT31;69168;42.708;23.286;2023-11-18T09:45:54;3.16;70.22
79698;SHT31;69168;42.708;23.286;2023-11-18T09:48:21;3.29;70.02
79698;SHT31;69168;42.708;23.286;2023-11-18T09:50:52;3.33;69.94
79698;SHT31;69168;42.708;23.286;2023-11-18T09:53:18;3.29;69.95
79698;SHT31;69168;42.708;23.286;2023-11-18T09:55:58;3.42;69.76
79698;SHT31;69168;42.708;23.286;2023-11-18T09:58:29;3.33;69.84
79698;SHT31;69168;42.708;23.286;2023-11-18T10:00:59;3.39;69.86
79698;SHT31;69168;42.708;23.286;2023-11-18T10:03:28;3.39;70.01
79698;SHT31;69168;42.708;23.286;2023-11-18T10:05:55;3.36;69.52
79698;SHT31;69168;42.708;23.286;2023-11-18T10:08:22;3.25;69.83
79698;SHT31;69168;42.708;23.286;2023-11-18T10:10:51;3.33;69.67
79698;SHT31;69168;42.708;23.286;2023-11-18T10:13:30;3.35;69.80
79698;SHT31;69168;42.708;23.286;2023-11-18T10:15:55;3.37;69.80
79698;SHT31;69168;42.708;23.286;2023-11-18T10:18:23;3.39;69.76
79698;SHT31;69168;42.708;23.286;2023-11-18T10:20:49;3.32;69.63
79698;SHT31;69168;42.708;23.286;2023-11-18T10:23:20;3.44;69.22
79698;SHT31;69168;42.708;23.286;2023-11-18T10:25:55;3.39;68.92
79698;SHT31;69168;42.708;23.286;2023-11-18T10:28:27;3.39;68.92
79698;SHT31;69168;42.708;23.286;2023-11-18T10:30:55;3.35;69.05
79698;SHT31;69168;42.708;23.286;2023-11-18T10:33:25;3.40;68.99
79698;SHT31;69168;42.708;23.286;2023-11-18T10:35:56;3.50;68.69
79698;SHT31;69168;42.708;23.286;2023-11-18T10:38:22;3.49;68.99
79698;SHT31;69168;42.708;23.286;2023-11-18T10:40:54;3.50;68.71
79698;SHT31;69168;42.708;23.286;2023-11-18T10:43:27;3.40;69.07
79698;SHT31;69168;42.708;23.286;2023-11-18T10:46:09;3.43;69.45
79698;SHT31;69168;42.708;23.286;2023-11-18T10:48:47;3.46;69.00
79698;SHT31;69168;42.708;23.286;2023-11-18T10:51:14;3.32;69.15
79698;SHT31;69168;42.708;23.286;2023-11-18T10:53:46;3.42;69.47
79698;SHT31;69168;42.708;23.286;2023-11-18T10:56:27;3.39;69.28
79698;SHT31;69168;42.708;23.286;2023-11-18T10:58:57;3.35;69.04
79698;SHT31;69168;42.708;23.286;2023-11-18T11:01:37;3.33;69.21
79698;SHT31;69168;42.708;23.286;2023-11-18T11:04:13;3.47;69.09
79698;SHT31;69168;42.708;23.286;2023-11-18T11:06:45;3.27;69.53
79698;SHT31;69168;42.708;23.286;2023-11-18T11:09:18;3.33;69.61
79698;SHT31;69168;42.708;23.286;2023-11-18T11:11:59;3.36;69.76
79698;SHT31;69168;42.708;23.286;2023-11-18T11:14:39;3.27;69.75
79698;SHT31;69168;42.708;23.286;2023-11-18T11:17:12;3.39;69.79
79698;SHT31;69168;42.708;23.286;2023-11-18T11:22:56;3.29;69.05
79698;SHT31;69168;42.708;23.286;2023-11-18T11:25:33;3.27;69.60
79698;SHT31;69168;42.708;23.286;2023-11-18T11:28:22;3.39;69.37
79698;SHT31;69168;42.708;23.286;2023-11-18T11:31:20;3.43;68.89
79698;SHT31;69168;42.708;23.286;2023-11-18T11:36:30;3.29;69.38
79698;SHT31;69168;42.708;23.286;2023-11-18T11:38:59;3.40;69.20
79698;SHT31;69168;42.708;23.286;2023-11-18T11:41:27;3.46;68.91
79698;SHT31;69168;42.708;23.286;2023-11-18T11:43:54;3.44;69.10
79698;SHT31;69168;42.708;23.286;2023-11-18T11:46:25;3.52;68.72
79698;SHT31;69168;42.708;23.286;2023-11-18T11:49:00;3.47;68.91
79698;SHT31;69168;42.708;23.286;2023-11-18T11:51:37;3.40;68.97
79698;SHT31;69168;42.708;23.286;2023-11-18T11:54:13;3.49;68.85
79698;SHT31;69168;42.708;23.286;2023-11-18T11:56:43;3.44;68.81
79698;SHT31;69168;42.708;23.286;2023-11-18T11:59:09;3.46;69.07
79698;SHT31;69168;42.708;23.286;2023-11-18T12:01:37;3.61;68.82
79698;SHT31;69168;42.708;23.286;2023-11-18T12:04:09;3.61;68.51
79698;SHT31;69168;42.708;23.286;2023-11-18T12:06:46;3.63;68.82
79698;SHT31;69168;42.708;23.286;2023-11-18T12:09:13;3.44;68.94
79698;SHT31;69168;42.708;23.286;2023-11-18T12:11:45;3.40;69.14
79698;SHT31;69168;42.708;23.286;2023-11-18T12:14:14;3.44;69.42
79698;SHT31;69168;42.708;23.286;2023-11-18T12:17:02;3.47;69.36
79698;SHT31;69168;42.708;23.286;2023-11-18T12:19:38;3.47;68.80
79698;SHT31;69168;42.708;23.286;2023-11-18T12:22:15;3.39;69.31
79698;SHT31;69168;42.708;23.286;2023-11-18T12:35:44;3.53;69.08
79698;SHT31;69168;42.708;23.286;2023-11-18T12:41:35;3.47;69.21
79698;SHT31;69168;42.708;23.286;2023-11-18T12:46:53;3.47;69.48
79698;SHT31;69168;42.708;23.286;2023-11-18T12:49:21;3.49;69.34
79698;SHT31;69168;42.708;23.286;2023-11-18T12:51:52;3.52;69.47
79698;SHT31;69168;42.708;23.286;2023-11-18T12:54:25;3.56;69.07
79698;SHT31;69168;42.708;23.286;2023-11-18T12:56:54;3.50;69.24
79698;SHT31;69168;42.708;23.286;2023-11-18T12:59:20;3.49;69.32
79698;SHT31;69168;42.708;23.286;2023-11-18T13:01:53;3.50;69.07
79698;SHT31;69168;42.708;23.286;2023-11-18T13:04:22;3.49;69.22
79698;SHT31;69168;42.708;23.286;2023-11-18T13:06:49;3.50;69.21
79698;SHT31;69168;42.708;23.286;2023-11-18T13:09:17;3.54;69.17
79698;SHT31;69168;42.708;23.286;2023-11-18T13:11:56;3.52;69.28
79698;SHT31;69168;42.708;23.286;2023-11-18T13:14:26;3.52;69.21
79698;SHT31;69168;42.708;23.286;2023-11-18T13:16:56;3.47;69.41
79698;SHT31;69168;42.708;23.286;2023-11-18T13:19:24;3.39;69.67
79698;SHT31;69168;42.708;23.286;2023-11-18T13:21:51;3.49;69.85
79698;SHT31;69168;42.708;23.286;2023-11-18T13:24:17;3.52;70.11
79698;SHT31;69168;42.708;23.286;2023-11-18T13:26:42;3.46;70.16
79698;SHT31;69168;42.708;23.286;2023-11-18T13:29:08;3.39;70.29
79698;SHT31;69168;42.708;23.286;2023-11-18T13:31:34;3.36;70.60
79698;SHT31;69168;42.708;23.286;2023-11-18T13:34:01;3.32;71.15
79698;SHT31;69168;42.708;23.286;2023-11-18T13:36:26;3.18;71.27
79698;SHT31;69168;42.708;23.286;2023-11-18T13:38:52;3.27;71.54
79698;SHT31;69168;42.708;23.286;2023-11-18T13:41:30;3.30;71.33
79698;SHT31;69168;42.708;23.286;2023-11-18T13:43:57;3.27;71.32
79698;SHT31;69168;42.708;23.286;2023-11-18T13:46:23;3.26;71.35
79698;SHT31;69168;42.708;23.286;2023-11-18T13:48:49;3.32;71.28
79698;SHT31;69168;42.708;23.286;2023-11-18T13:51:15;3.29;71.43
79698;SHT31;69168;42.708;23.286;2023-11-18T13:53:42;3.30;71.26
79698;SHT31;69168;42.708;23.286;2023-11-18T13:56:10;3.20;71.81
79698;SHT31;69168;42.708;23.286;2023-11-18T13:58:36;3.16;71.41
79698;SHT31;69168;42.708;23.286;2023-11-18T14:01:06;3.16;72.18
79698;SHT31;69168;42.708;23.286;2023-11-18T14:03:36;3.16;71.86
79698;SHT31;69168;42.708;23.286;2023-11-18T14:06:08;3.05;72.02
79698;SHT31;69168;42.708;23.286;2023-11-18T14:08:38;3.13;72.38
79698;SHT31;69168;42.708;23.286;2023-11-18T14:11:04;3.09;72.41
79698;SHT31;69168;42.708;23.286;2023-11-18T14:13:31;3.09;72.69
79698;SHT31;69168;42.708;23.286;2023-11-18T14:15:58;3.13;72.70
79698;SHT31;69168;42.708;23.286;2023-11-18T14:18:25;3.12;72.58
79698;SHT31;69168;42.708;23.286;2023-11-18T14:20:51;3.11;72.56
79698;SHT31;69168;42.708;23.286;2023-11-18T14:23:17;3.08;72.84
79698;SHT31;69168;42.708;23.286;2023-11-18T14:25:44;3.05;73.14
79698;SHT31;69168;42.708;23.286;2023-11-18T14:28:11;3.05;73.12
79698;SHT31;69168;42.708;23.286;2023-11-18T14:30:37;2.99;73.61
79698;SHT31;69168;42.708;23.286;2023-11-18T14:33:03;2.95;73.64
79698;SHT31;69168;42.708;23.286;2023-11-18T14:35:32;2.97;74.11
79698;SHT31;69168;42.708;23.286;2023-11-18T14:37:59;2.97;74.08
79698;SHT31;69168;42.708;23.286;2023-11-18T14:40:26;2.97;73.97
79698;SHT31;69168;42.708;23.286;2023-11-18T14:42:54;3.01;73.55
79698;SHT31;69168;42.708;23.286;2023-11-18T14:45:20;3.01;73.62
79698;SHT31;69168;42.708;23.286;2023-11-18T14:47:45;3.04;73.17
79698;SHT31;69168;42.708;23.286;2023-11-18T14:50:13;3.02;73.52
79698;SHT31;69168;42.708;23.286;2023-11-18T14:55:13;3.05;73.33
79698;SHT31;69168;42.708;23.286;2023-11-18T14:57:40;3.09;72.80
79698;SHT31;69168;42.708;23.286;2023-11-18T15:00:07;3.11;72.81
79698;SHT31;69168;42.708;23.286;2023-11-18T15:02:37;3.11;72.68
79698;SHT31;69168;42.708;23.286;2023-11-18T15:05:03;3.18;72.55
79698;SHT31;69168;42.708;23.286;2023-11-18T15:07:34;3.15;72.27
79698;SHT31;69168;42.708;23.286;2023-11-18T15:09:59;3.11;72.20
79698;SHT31;69168;42.708;23.286;2023-11-18T15:12:25;3.12;72.08
79698;SHT31;69168;42.708;23.286;2023-11-18T15:14:50;3.15;72.10
79698;SHT31;69168;42.708;23.286;2023-11-18T15:17:16;3.09;71.99
79698;SHT31;69168;42.708;23.286;2023-11-18T15:19:42;3.16;71.91
79698;SHT31;69168;42.708;23.286;2023-11-18T15:22:08;3.13;71.79
79698;SHT31;69168;42.708;23.286;2023-11-18T15:24:35;3.20;71.83
79698;SHT31;69168;42.708;23.286;2023-11-18T15:27:00;3.15;71.68
79698;SHT31;69168;42.708;23.286;2023-11-18T15:29:28;3.11;71.92
79698;SHT31;69168;42.708;23.286;2023-11-18T15:31:59;3.16;72.01
79698;SHT31;69168;42.708;23.286;2023-11-18T15:34:24;3.16;71.94
79698;SHT31;69168;42.708;23.286;2023-11-18T15:36:50;3.19;71.88
79698;SHT31;69168;42.708;23.286;2023-11-18T15:39:17;3.18;71.52
79698;SHT31;69168;42.708;23.286;2023-11-18T15:41:45;3.26;71.55
79698;SHT31;69168;42.708;23.286;2023-11-18T15:44:10;3.20;71.43
79698;SHT31;69168;42.708;23.286;2023-11-18T15:46:47;3.16;71.58
79698;SHT31;69168;42.708;23.286;2023-11-18T15:49:13;3.18;71.41
79698;SHT31;69168;42.708;23.286;2023-11-18T15:51:39;3.22;71.44
79698;SHT31;69168;42.708;23.286;2023-11-18T15:54:05;3.19;71.29
79698;SHT31;69168;42.708;23.286;2023-11-18T15:56:31;3.16;71.44
79698;SHT31;69168;42.708;23.286;2023-11-18T15:58:59;3.15;71.33
79698;SHT31;69168;42.708;23.286;2023-11-18T16:01:24;3.18;71.43
79698;SHT31;69168;42.708;23.286;2023-11-18T16:03:50;3.16;71.44
79698;SHT31;69168;42.708;23.286;2023-11-18T16:06:16;3.15;71.18